createdAt,value
2022-10-03T00:00:55.532Z,11.90
2022-10-03T00:04:00.594Z,11.80
2022-10-03T00:07:21.433Z,11.70
2022-10-03T00:10:22.498Z,11.70
2022-10-03T00:13:25.799Z,11.60
2022-10-03T00:16:12.016Z,11.60
2022-10-03T00:19:09.947Z,11.40
2022-10-03T00:22:26.490Z,11.40
2022-10-03T00:25:32.563Z,11.30
2022-10-03T00:28:41.719Z,11.30
2022-10-03T00:32:00.266Z,11.30
2022-10-03T00:34:52.223Z,11.30
2022-10-03T00:37:58.330Z,11.40
2022-10-03T00:41:14.489Z,11.30
2022-10-03T00:44:09.992Z,11.30
2022-10-03T00:47:10.642Z,11.30
2022-10-03T00:50:36.087Z,11.20
2022-10-03T00:53:26.673Z,11.10
2022-10-03T00:56:29.630Z,11.00
2022-10-03T00:59:34.084Z,10.90
2022-10-03T01:02:46.261Z,10.90
2022-10-03T01:06:02.338Z,10.90
2022-10-03T01:09:04.128Z,10.90
2022-10-03T01:12:00.326Z,10.80
2022-10-03T01:15:11.194Z,10.80
2022-10-03T01:18:18.485Z,10.70
2022-10-03T01:21:10.869Z,10.70
2022-10-03T01:24:20.976Z,10.70
2022-10-03T01:27:11.454Z,10.60
2022-10-03T01:30:22.453Z,10.60
2022-10-03T01:33:16.009Z,10.60
2022-10-03T01:36:21.048Z,10.60
2022-10-03T01:39:10.020Z,10.60
2022-10-03T01:42:17.323Z,10.60
2022-10-03T01:45:29.062Z,10.60
2022-10-03T01:48:53.231Z,10.60
2022-10-03T01:52:01.086Z,10.60
2022-10-03T01:55:02.154Z,10.70
2022-10-03T01:58:02.025Z,10.70
2022-10-03T02:00:59.146Z,10.80
2022-10-03T02:04:04.375Z,10.80
2022-10-03T02:07:12.946Z,10.80
2022-10-03T02:10:07.946Z,10.90
2022-10-03T02:13:02.225Z,10.90
2022-10-03T02:16:25.603Z,10.90
2022-10-03T02:19:18.222Z,10.80
2022-10-03T02:22:16.318Z,10.70
2022-10-03T02:25:24.250Z,10.60
2022-10-03T02:28:16.517Z,10.50
2022-10-03T02:31:40.702Z,10.40
2022-10-03T02:35:10.417Z,10.30
2022-10-03T02:38:06.061Z,10.30
2022-10-03T02:41:04.315Z,10.20
2022-10-03T02:44:09.061Z,10.20
2022-10-03T02:47:19.847Z,10.10
2022-10-03T02:50:09.195Z,10.00
2022-10-03T02:53:27.004Z,9.90
2022-10-03T02:56:41.207Z,9.90
2022-10-03T02:59:53.741Z,9.90
2022-10-03T03:03:17.382Z,9.80
2022-10-03T03:06:39.098Z,9.60
2022-10-03T03:09:47.262Z,9.40
2022-10-03T03:13:11.221Z,9.30
2022-10-03T03:16:23.482Z,9.20
2022-10-03T03:19:09.742Z,9.10
2022-10-03T03:22:16.781Z,9.20
2022-10-03T03:25:19.924Z,9.30
2022-10-03T03:28:38.686Z,9.50
2022-10-03T03:31:29.891Z,9.60
2022-10-03T03:34:31.666Z,9.60
2022-10-03T03:37:30.246Z,9.60
2022-10-03T03:40:32.720Z,9.40
2022-10-03T03:43:37.245Z,9.40
2022-10-03T03:46:50.949Z,9.40
2022-10-03T03:49:51.129Z,9.40
2022-10-03T03:53:09.498Z,9.30
2022-10-03T03:56:03.103Z,9.20
2022-10-03T03:58:55.207Z,9.10
2022-10-03T04:02:10.062Z,9.00
2022-10-03T04:04:56.321Z,9.10
2022-10-03T04:08:12.111Z,9.10
2022-10-03T04:11:33.173Z,9.30
2022-10-03T04:14:47.434Z,9.20
2022-10-03T04:18:14.382Z,9.20
2022-10-03T04:21:21.085Z,9.10
2022-10-03T04:24:35.678Z,9.10
2022-10-03T04:28:00.143Z,9.10
2022-10-03T04:31:02.591Z,9.00
2022-10-03T04:34:03.997Z,9.00
2022-10-03T04:37:17.225Z,9.00
2022-10-03T04:40:27.861Z,9.10
2022-10-03T04:43:58.690Z,9.10
2022-10-03T04:47:14.274Z,9.10
2022-10-03T04:50:12.779Z,9.00
2022-10-03T04:53:13.641Z,8.90
2022-10-03T04:56:18.727Z,8.80
2022-10-03T04:59:23.632Z,8.70
2022-10-03T05:02:28.621Z,8.60
2022-10-03T05:05:41.745Z,8.60
2022-10-03T05:08:49.859Z,8.60
2022-10-03T05:11:55.715Z,8.60
2022-10-03T05:14:52.298Z,8.70
2022-10-03T05:17:40.960Z,8.60
2022-10-03T05:20:54.826Z,8.70
2022-10-03T05:24:02.764Z,8.80
2022-10-03T05:27:35.733Z,8.80
2022-10-03T05:30:50.134Z,8.80
2022-10-03T05:34:14.757Z,8.80
2022-10-03T05:37:15.702Z,8.80
2022-10-03T05:40:20.739Z,8.90
2022-10-03T05:43:36.246Z,8.90
2022-10-03T05:46:54.523Z,9.00
2022-10-03T05:50:09.503Z,9.00
2022-10-03T05:53:34.890Z,9.30
2022-10-03T05:56:53.671Z,9.40
2022-10-03T05:59:59.291Z,9.50
2022-10-03T06:03:19.078Z,9.60
2022-10-03T06:06:24.665Z,9.60
2022-10-03T06:09:26.057Z,9.60
2022-10-03T06:12:38.006Z,9.60
2022-10-03T06:15:38.510Z,9.60
2022-10-03T06:18:47.627Z,9.50
2022-10-03T06:22:04.503Z,9.50
2022-10-03T06:25:13.777Z,9.50
2022-10-03T06:28:36.094Z,9.50
2022-10-03T06:31:58.020Z,9.50
2022-10-03T06:35:22.460Z,9.50
2022-10-03T06:38:26.674Z,9.40
2022-10-03T06:41:22.077Z,9.50
2022-10-03T06:44:44.966Z,9.50
2022-10-03T06:47:40.196Z,9.50
2022-10-03T06:50:35.789Z,9.60
2022-10-03T06:53:40.597Z,9.60
2022-10-03T06:56:58.198Z,9.70
2022-10-03T07:00:07.070Z,9.70
2022-10-03T07:03:27.831Z,9.70
2022-10-03T07:06:41.795Z,9.70
2022-10-03T07:09:46.243Z,9.70
2022-10-03T07:12:48.120Z,9.70
2022-10-03T07:16:26.430Z,9.80
2022-10-03T07:19:31.638Z,9.80
2022-10-03T07:23:08.145Z,9.80
2022-10-03T07:25:57.386Z,9.90
2022-10-03T07:29:02.374Z,10.00
2022-10-03T07:32:04.190Z,10.00
2022-10-03T07:35:02.191Z,10.00
2022-10-03T07:38:39.389Z,10.10
2022-10-03T07:41:31.748Z,10.20
2022-10-03T07:44:50.048Z,10.30
2022-10-03T07:48:17.384Z,10.30
2022-10-03T07:51:21.081Z,10.30
2022-10-03T07:54:38.893Z,10.30
2022-10-03T07:57:48.240Z,10.30
2022-10-03T08:01:08.819Z,10.30
2022-10-03T08:04:29.185Z,10.20
2022-10-03T08:07:53.221Z,10.20
2022-10-03T08:10:54.448Z,10.10
2022-10-03T08:13:49.469Z,10.10
2022-10-03T08:17:00.529Z,10.10
2022-10-03T08:20:05.892Z,10.30
2022-10-03T08:23:15.063Z,10.50
2022-10-03T08:26:22.518Z,10.50
2022-10-03T08:29:26.596Z,10.60
2022-10-03T08:32:28.388Z,10.60
2022-10-03T08:35:30.215Z,10.70
2022-10-03T08:39:07.401Z,10.80
2022-10-03T08:42:14.492Z,10.90
2022-10-03T08:45:28.465Z,10.80
2022-10-03T08:48:33.423Z,10.70
2022-10-03T08:51:47.907Z,10.60
2022-10-03T08:54:55.842Z,10.60
2022-10-03T08:57:56.151Z,10.60
2022-10-03T09:01:09.081Z,10.70
2022-10-03T09:04:32.730Z,10.70
2022-10-03T09:07:43.192Z,10.60
2022-10-03T09:10:35.821Z,10.70
2022-10-03T09:13:50.129Z,10.80
2022-10-03T09:17:06.428Z,10.90
2022-10-03T09:20:27.442Z,11.10
2022-10-03T09:23:41.298Z,11.20
2022-10-03T09:27:05.257Z,11.30
2022-10-03T09:30:20.307Z,11.30
2022-10-03T09:33:18.307Z,11.30
2022-10-03T09:36:08.009Z,11.40
2022-10-03T09:39:07.267Z,11.40
2022-10-03T09:42:17.242Z,11.40
2022-10-03T09:45:22.350Z,11.50
2022-10-03T09:48:42.783Z,11.50
2022-10-03T09:51:58.230Z,11.70
2022-10-03T09:54:53.196Z,11.80
2022-10-03T09:57:51.553Z,11.90
2022-10-03T10:00:37.708Z,12.00
2022-10-03T10:03:29.720Z,11.90
2022-10-03T10:06:16.039Z,12.00
2022-10-03T10:09:14.333Z,12.10
2022-10-03T10:12:16.795Z,12.20
2022-10-03T10:15:41.687Z,12.20
2022-10-03T10:18:40.432Z,12.10
2022-10-03T10:21:41.431Z,12.10
2022-10-03T10:24:30.331Z,12.10
2022-10-03T10:28:10.379Z,12.30
2022-10-03T10:31:24.409Z,12.50
2022-10-03T10:34:30.431Z,12.80
2022-10-03T10:37:58.051Z,13.10
2022-10-03T10:41:21.231Z,13.30
2022-10-03T10:44:32.210Z,13.60
2022-10-03T10:47:30.339Z,13.80
2022-10-03T10:50:56.007Z,14.10
2022-10-03T10:54:29.874Z,14.30
2022-10-03T10:57:26.846Z,14.60
2022-10-03T11:00:26.441Z,14.60
2022-10-03T11:03:18.587Z,14.70
2022-10-03T11:06:24.038Z,14.80
2022-10-03T11:09:34.608Z,14.50
2022-10-03T11:13:00.745Z,14.40
2022-10-03T11:16:05.924Z,14.50
2022-10-03T11:19:07.055Z,14.70
2022-10-03T11:22:24.243Z,14.90
2022-10-03T11:25:40.450Z,15.20
2022-10-03T11:29:14.942Z,15.40
2022-10-03T11:32:32.235Z,15.50
2022-10-03T11:35:42.950Z,15.70
2022-10-03T11:38:59.117Z,15.90
2022-10-03T11:42:06.004Z,16.10
2022-10-03T11:45:16.188Z,16.20
2022-10-03T11:48:24.025Z,16.30
2022-10-03T11:51:19.015Z,16.20
2022-10-03T11:54:32.024Z,16.10
2022-10-03T11:57:30.312Z,15.90
2022-10-03T12:00:20.777Z,15.80
2022-10-03T12:03:13.778Z,15.70
2022-10-03T12:06:28.106Z,15.80
2022-10-03T12:09:14.263Z,15.90
2022-10-03T12:12:09.646Z,16.00
2022-10-03T12:15:04.734Z,15.90
2022-10-03T12:18:10.927Z,16.00
2022-10-03T12:21:21.788Z,16.00
2022-10-03T12:24:29.677Z,16.20
2022-10-03T12:27:20.947Z,16.50
2022-10-03T12:30:16.383Z,16.90
2022-10-03T12:33:21.462Z,17.00
2022-10-03T12:36:33.126Z,17.00
2022-10-03T12:40:01.373Z,16.90
2022-10-03T12:43:24.520Z,16.90
2022-10-03T12:46:30.109Z,16.70
2022-10-03T12:49:25.402Z,16.50
2022-10-03T12:52:27.715Z,16.40
2022-10-03T12:55:29.025Z,16.20
2022-10-03T12:58:38.082Z,16.00
2022-10-03T13:01:45.554Z,15.90
2022-10-03T13:04:55.470Z,15.90
2022-10-03T13:08:03.376Z,15.80
2022-10-03T13:10:56.775Z,15.70
2022-10-03T13:14:01.194Z,15.50
2022-10-03T13:16:48.082Z,15.30
2022-10-03T13:19:42.929Z,15.30
2022-10-03T13:22:48.521Z,15.50
2022-10-03T13:25:45.420Z,15.70
2022-10-03T13:28:56.307Z,15.80
2022-10-03T13:32:05.470Z,15.90
2022-10-03T13:35:31.257Z,16.10
2022-10-03T13:38:45.857Z,16.50
2022-10-03T13:41:59.847Z,16.80
2022-10-03T13:44:59.232Z,17.20
2022-10-03T13:48:00.389Z,17.50
2022-10-03T13:50:58.714Z,17.80
2022-10-03T13:54:00.186Z,17.80
2022-10-03T13:57:02.020Z,17.90
2022-10-03T13:59:56.806Z,17.70
2022-10-03T14:03:08.773Z,17.50
2022-10-03T14:06:18.256Z,17.20
2022-10-03T14:09:16.398Z,16.90
2022-10-03T14:12:33.058Z,16.70
2022-10-03T14:15:42.596Z,16.60
2022-10-03T14:18:35.666Z,16.50
2022-10-03T14:21:51.074Z,16.30
2022-10-03T14:24:40.234Z,16.20
2022-10-03T14:27:42.318Z,16.20
2022-10-03T14:31:04.474Z,16.20
2022-10-03T14:34:30.320Z,16.30
2022-10-03T14:37:20.819Z,16.30
2022-10-03T14:40:48.414Z,16.20
2022-10-03T14:43:48.067Z,16.10
2022-10-03T14:46:40.711Z,16.10
2022-10-03T14:49:53.679Z,16.00
2022-10-03T14:52:44.622Z,15.90
2022-10-03T14:55:43.830Z,15.90
2022-10-03T14:58:35.591Z,15.80
2022-10-03T15:01:28.508Z,15.70
2022-10-03T15:04:41.914Z,15.60
2022-10-03T15:07:54.619Z,15.60
2022-10-03T15:10:41.545Z,15.50
2022-10-03T15:13:27.669Z,15.40
2022-10-03T15:16:19.238Z,15.30
2022-10-03T15:19:11.339Z,15.30
2022-10-03T15:22:07.241Z,15.30
2022-10-03T15:24:55.577Z,15.30
2022-10-03T15:27:44.537Z,15.30
2022-10-03T15:30:34.421Z,15.30
2022-10-03T15:33:34.484Z,15.30
2022-10-03T15:36:25.627Z,15.30
2022-10-03T15:39:30.261Z,15.20
2022-10-03T15:42:30.903Z,15.20
2022-10-03T15:45:28.857Z,15.10
2022-10-03T15:48:20.953Z,15.10
2022-10-03T15:51:17.146Z,15.00
2022-10-03T15:54:07.927Z,14.90
2022-10-03T15:57:01.492Z,14.80
2022-10-03T15:59:53.229Z,14.80
2022-10-03T16:02:52.691Z,14.70
2022-10-03T16:05:55.088Z,14.60
2022-10-03T16:08:53.588Z,14.60
2022-10-03T16:11:47.678Z,14.40
2022-10-03T16:14:43.162Z,14.40
2022-10-03T16:17:39.300Z,14.30
2022-10-03T16:20:57.699Z,14.40
2022-10-03T16:23:45.914Z,14.30
2022-10-03T16:26:49.396Z,14.30
2022-10-03T16:29:39.276Z,14.20
2022-10-03T16:32:29.718Z,14.10
2022-10-03T16:35:48.750Z,14.00
2022-10-03T16:38:38.244Z,13.90
2022-10-03T16:41:34.546Z,13.80
2022-10-03T16:44:39.759Z,13.80
2022-10-03T16:47:35.608Z,13.60
2022-10-03T16:50:25.645Z,13.60
2022-10-03T16:53:13.599Z,13.40
2022-10-03T16:56:07.209Z,13.40
2022-10-03T16:58:55.711Z,13.30
2022-10-03T17:01:50.936Z,13.20
2022-10-03T17:04:39.832Z,13.10
2022-10-03T17:07:40.486Z,12.90
2022-10-03T17:10:45.981Z,12.80
2022-10-03T17:14:10.527Z,12.70
2022-10-03T17:17:02.759Z,12.50
2022-10-03T17:20:26.426Z,12.50
2022-10-03T17:23:40.233Z,12.30
2022-10-03T17:26:40.387Z,12.00
2022-10-03T17:29:33.813Z,12.00
2022-10-03T17:32:38.314Z,11.90
2022-10-03T17:35:55.011Z,11.80
2022-10-03T17:38:59.225Z,11.80
2022-10-03T17:42:02.513Z,11.60
2022-10-03T17:45:09.389Z,11.50
2022-10-03T17:48:34.968Z,11.50
2022-10-03T17:51:33.135Z,11.60
2022-10-03T17:54:28.223Z,11.50
2022-10-03T17:57:40.095Z,11.40
2022-10-03T18:00:54.670Z,11.20
2022-10-03T18:03:55.234Z,11.10
2022-10-03T18:07:01.508Z,11.10
2022-10-03T18:09:50.039Z,11.20
2022-10-03T18:12:39.943Z,11.10
2022-10-03T18:15:47.075Z,11.10
2022-10-03T18:19:07.242Z,11.00
2022-10-03T18:22:02.223Z,10.90
2022-10-03T18:25:39.335Z,10.80
2022-10-03T18:28:58.036Z,10.70
2022-10-03T18:31:48.312Z,10.60
2022-10-03T18:34:43.555Z,10.50
2022-10-03T18:37:29.272Z,10.50
2022-10-03T18:40:18.261Z,10.50
2022-10-03T18:43:05.998Z,10.60
2022-10-03T18:46:09.534Z,10.60
2022-10-03T18:49:32.492Z,10.60
2022-10-03T18:52:24.449Z,10.60
2022-10-03T18:55:29.643Z,10.60
2022-10-03T18:58:25.706Z,10.60
2022-10-03T19:01:24.495Z,10.50
2022-10-03T19:04:15.831Z,10.40
2022-10-03T19:07:11.683Z,10.30
2022-10-03T19:10:11.868Z,10.20
2022-10-03T19:13:28.388Z,10.10
2022-10-03T19:16:42.866Z,10.00
2022-10-03T19:19:32.404Z,10.00
2022-10-03T19:22:27.062Z,9.90
2022-10-03T19:25:23.022Z,9.90
2022-10-03T19:28:28.276Z,9.90
2022-10-03T19:31:31.838Z,9.70
2022-10-03T19:34:28.267Z,9.70
2022-10-03T19:37:26.250Z,9.70
2022-10-03T19:40:44.899Z,9.80
2022-10-03T19:43:34.115Z,9.80
2022-10-03T19:46:47.898Z,9.90
2022-10-03T19:50:19.117Z,10.00
2022-10-03T19:53:16.042Z,10.00
2022-10-03T19:56:04.089Z,9.90
2022-10-03T19:59:04.276Z,9.90
2022-10-03T20:01:50.670Z,9.80
2022-10-03T20:04:37.573Z,9.80
2022-10-03T20:07:44.833Z,9.80
2022-10-03T20:11:04.530Z,9.80
2022-10-03T20:13:51.008Z,9.80
2022-10-03T20:16:43.477Z,9.80
2022-10-03T20:19:56.248Z,9.60
2022-10-03T20:22:43.113Z,9.60
2022-10-03T20:25:36.621Z,9.60
2022-10-03T20:28:46.629Z,9.60
2022-10-03T20:31:33.648Z,9.70
2022-10-03T20:34:24.350Z,9.60
2022-10-03T20:37:46.845Z,9.50
2022-10-03T20:40:52.278Z,9.50
2022-10-03T20:43:45.024Z,9.40
2022-10-03T20:46:31.914Z,9.40
2022-10-03T20:49:30.027Z,9.30
2022-10-03T20:52:18.082Z,9.30
2022-10-03T20:55:09.102Z,9.30
2022-10-03T20:58:05.816Z,9.30
2022-10-03T21:01:14.454Z,9.30
2022-10-03T21:04:27.725Z,9.40
2022-10-03T21:07:36.145Z,9.40
2022-10-03T21:10:31.079Z,9.40
2022-10-03T21:14:01.933Z,9.40
2022-10-03T21:16:51.485Z,9.40
2022-10-03T21:19:55.062Z,9.30
2022-10-03T21:22:42.601Z,9.30
2022-10-03T21:25:35.995Z,9.30
2022-10-03T21:28:29.769Z,9.30
2022-10-03T21:31:35.474Z,9.30
2022-10-03T21:34:30.104Z,9.20
2022-10-03T21:37:23.678Z,9.20
2022-10-03T21:40:32.402Z,9.10
2022-10-03T21:43:27.523Z,9.00
2022-10-03T21:46:23.762Z,9.10
2022-10-03T21:49:37.139Z,9.00
2022-10-03T21:52:50.349Z,9.00
2022-10-03T21:55:53.167Z,9.00
2022-10-03T21:58:49.867Z,9.00
2022-10-03T22:02:01.643Z,8.90
2022-10-03T22:05:00.133Z,8.90
2022-10-03T22:07:46.658Z,8.70
2022-10-03T22:10:36.794Z,8.70
2022-10-03T22:13:25.905Z,8.70
2022-10-03T22:16:49.221Z,8.60
2022-10-03T22:19:52.797Z,8.60
2022-10-03T22:23:07.657Z,8.40
2022-10-03T22:26:20.861Z,8.30
2022-10-03T22:29:32.329Z,8.20
2022-10-03T22:32:27.141Z,8.30
2022-10-03T22:35:28.885Z,8.40
2022-10-03T22:38:17.093Z,8.50
2022-10-03T22:41:12.370Z,8.50
2022-10-03T22:44:00.099Z,8.50
2022-10-03T22:46:52.331Z,8.60
2022-10-03T22:49:41.953Z,8.60
2022-10-03T22:52:35.814Z,8.60
2022-10-03T22:55:25.255Z,8.60
2022-10-03T22:58:12.466Z,8.60
2022-10-03T23:01:01.260Z,8.60
2022-10-03T23:03:47.597Z,8.60
2022-10-03T23:06:59.301Z,8.50
2022-10-03T23:09:45.494Z,8.60
2022-10-03T23:12:39.658Z,8.50
2022-10-03T23:15:27.838Z,8.40
2022-10-03T23:18:29.034Z,8.50
2022-10-03T23:21:15.343Z,8.30
2022-10-03T23:24:18.185Z,8.20
2022-10-03T23:27:38.496Z,8.10
2022-10-03T23:30:24.447Z,8.20
2022-10-03T23:33:17.168Z,8.20
2022-10-03T23:36:16.557Z,8.20
2022-10-03T23:39:03.111Z,8.20
2022-10-03T23:41:58.717Z,8.30
2022-10-03T23:44:54.524Z,8.30
2022-10-03T23:48:06.635Z,8.30
2022-10-03T23:50:58.295Z,8.20
2022-10-03T23:53:48.093Z,8.10
2022-10-03T23:56:43.818Z,8.10
2022-10-03T23:59:35.789Z,8.10
